Sea Thames — V2BV1 — position and weather

sailwx.info

Track history (hours):
 
Tides and Currents Weather Stations Pressure Air Temp Water Temp Dewpoint Dewpoint Depression Visibility Wind Speed Wind Dir Waves Ship Positions

Sea Thames

Last reported at 2017-Aug-24 03:59 UTC. Time now 2017-Aug-24 04:53 UTC.
Position N 48°01' W 005°22'.

Length 87 m; draft 3.5 m.

Type: Cargo ship. MMSI: 304933000.

Date/timePositionNaut miles runAvg speedWind from/ knotsBaromVisibWave heightAir tempDewpointWater temp
2017-Aug-24 03:59N 48°01' W 005°22'1510.2
2017-Aug-24 02:29N 47°47' W 005°14'5 9.1
2017-Aug-24 01:57N 47°42' W 005°11'5 8.7
2017-Aug-24 01:22N 47°37' W 005°08'41 8.9
2017-Aug-23 20:48N 47°01' W 004°42'14 8.5
2017-Aug-23 19:10N 46°50' W 004°30'1 8.0
2017-Aug-23 19:00N 46°49' W 004°29'5 8.1
2017-Aug-23 18:23N 46°44' W 004°24'3 8.2
2017-Aug-23 17:58N 46°42' W 004°21'4 8.1
2017-Aug-23 17:26N 46°38' W 004°18'4 8.6
2017-Aug-23 16:59N 46°35' W 004°15'4 8.8
2017-Aug-23 16:30N 46°31' W 004°11'4 8.4
2017-Aug-23 16:00N 46°28' W 004°08'4 8.1
2017-Aug-23 15:29N 46°24' W 004°05'5 8.1
2017-Aug-23 14:55N 46°20' W 004°01'8 8.5
2017-Aug-23 13:57N 46°13' W 003°57'6 8.7
2017-Aug-23 13:17N 46°07' W 003°56'5 8.7
2017-Aug-23 12:40N 46°02' W 003°55'165 5.1
2017-Aug-22 04:06N 43°25' W 002°43'0 0.0
2017-Aug-22 03:42N 43°25' W 002°43'  
2017-Aug-17 13:04N 43°35' W 005°28'0 7.9
2017-Aug-17 13:00N 43°35' W 005°29'4 8.0
2017-Aug-17 12:27N 43°35' W 005°35'4 7.9
2017-Aug-17 12:00N 43°34' W 005°40'1 2.8
2017-Aug-17 11:28N 43°34' W 005°42'0 0.0
2017-Aug-17 10:28N 43°34' W 005°42'0 0.0
2017-Aug-17 09:58N 43°34' W 005°42'0 0.0
2017-Aug-17 09:28N 43°34' W 005°42'0 0.0
2017-Aug-17 08:54N 43°34' W 005°42'0 0.0
2017-Aug-17 08:30N 43°34' W 005°42'0 0.0
2017-Aug-17 08:00N 43°34' W 005°42'0 0.0
2017-Aug-17 07:30N 43°34' W 005°42'0 0.0
2017-Aug-17 07:00N 43°34' W 005°42'0 0.0
2017-Aug-17 06:29N 43°34' W 005°42'0 0.0
2017-Aug-17 04:07N 43°34' W 005°42'0 0.0
2017-Aug-17 03:31N 43°34' W 005°42'0 0.0
2017-Aug-17 03:25N 43°34' W 005°42'0 0.0
2017-Aug-17 02:55N 43°34' W 005°42'0 0.0
2017-Aug-17 02:28N 43°34' W 005°42'0 0.6
2017-Aug-17 02:00N 43°34' W 005°41'3 6.0
2017-Aug-17 01:29N 43°36' W 005°38'4 7.5
2017-Aug-17 01:00N 43°39' W 005°35'  
2017-Aug-14 20:51N 49°34' W 004°06'3 7.5
2017-Aug-14 20:24N 49°36' W 004°01'3 7.5
2017-Aug-14 19:59N 49°37' W 003°57'4 7.9
2017-Aug-14 19:31N 49°39' W 003°52'4 8.2
2017-Aug-14 19:01N 49°41' W 003°46'4 8.7
2017-Aug-14 18:31N 49°43' W 003°40'5 9.1
2017-Aug-14 18:01N 49°45' W 003°34'5 9.3
2017-Aug-14 17:31N 49°48' W 003°28'5 9.5
2017-Aug-14 17:01N 49°50' W 003°22'5 9.4
2017-Aug-14 16:31N 49°53' W 003°16'5 9.1
2017-Aug-14 16:01N 49°55' W 003°10'4 8.9
2017-Aug-14 15:31N 49°57' W 003°04'4 8.5
2017-Aug-14 15:01N 49°59' W 002°58'4 7.9
2017-Aug-14 14:31N 50°01' W 002°52'4 7.5
2017-Aug-14 14:01N 50°02' W 002°47'4 7.1
2017-Aug-14 13:31N 50°03' W 002°41'3 6.6
2017-Aug-14 13:00N 50°04' W 002°36'3 6.2
2017-Aug-14 12:30N 50°05' W 002°32'3 6.0
2017-Aug-14 12:00N 50°06' W 002°27'16 6.4
2017-Aug-14 09:33N 50°10' W 002°04'1 7.4
2017-Aug-14 09:25N 50°10' W 002°02'9 8.4
2017-Aug-14 08:22N 50°13' W 001°49'3 9.5
2017-Aug-14 08:00N 50°14' W 001°44'3910.6
2017-Aug-14 04:22N 50°23' W 000°46'3 9.0
2017-Aug-14 03:59N 50°24' W 000°41'  
Track history (hours):
 
Tides and Currents Weather Stations Pressure Air Temp Water Temp Dewpoint Dewpoint Depression Visibility Wind Speed Wind Dir Waves Ship Positions

Sea Thames

Last reported at 2017-Aug-24 03:59 UTC. Time now 2017-Aug-24 04:53 UTC.
Position N 48°01' W 005°22'.

Length 87 m; draft 3.5 m.

Type: Cargo ship. MMSI: 304933000.

Date/timePositionNaut miles runAvg speedWind from/ knotsBaromVisibWave heightAir tempDewpointWater temp
2017-Aug-24 03:59N 48°01' W 005°22'1510.2
2017-Aug-24 02:29N 47°47' W 005°14'5 9.1
2017-Aug-24 01:57N 47°42' W 005°11'5 8.7
2017-Aug-24 01:22N 47°37' W 005°08'41 8.9
2017-Aug-23 20:48N 47°01' W 004°42'14 8.5
2017-Aug-23 19:10N 46°50' W 004°30'1 8.0
2017-Aug-23 19:00N 46°49' W 004°29'5 8.1
2017-Aug-23 18:23N 46°44' W 004°24'3 8.2
2017-Aug-23 17:58N 46°42' W 004°21'4 8.1
2017-Aug-23 17:26N 46°38' W 004°18'4 8.6
2017-Aug-23 16:59N 46°35' W 004°15'4 8.8
2017-Aug-23 16:30N 46°31' W 004°11'4 8.4
2017-Aug-23 16:00N 46°28' W 004°08'4 8.1
2017-Aug-23 15:29N 46°24' W 004°05'5 8.1
2017-Aug-23 14:55N 46°20' W 004°01'8 8.5
2017-Aug-23 13:57N 46°13' W 003°57'6 8.7
2017-Aug-23 13:17N 46°07' W 003°56'5 8.7
2017-Aug-23 12:40N 46°02' W 003°55'165 5.1
2017-Aug-22 04:06N 43°25' W 002°43'0 0.0
2017-Aug-22 03:42N 43°25' W 002°43'  
2017-Aug-17 13:04N 43°35' W 005°28'0 7.9
2017-Aug-17 13:00N 43°35' W 005°29'4 8.0
2017-Aug-17 12:27N 43°35' W 005°35'4 7.9
2017-Aug-17 12:00N 43°34' W 005°40'1 2.8
2017-Aug-17 11:28N 43°34' W 005°42'0 0.0
2017-Aug-17 10:28N 43°34' W 005°42'0 0.0
2017-Aug-17 09:58N 43°34' W 005°42'0 0.0
2017-Aug-17 09:28N 43°34' W 005°42'0 0.0
2017-Aug-17 08:54N 43°34' W 005°42'0 0.0
2017-Aug-17 08:30N 43°34' W 005°42'0 0.0
2017-Aug-17 08:00N 43°34' W 005°42'0 0.0
2017-Aug-17 07:30N 43°34' W 005°42'0 0.0
2017-Aug-17 07:00N 43°34' W 005°42'0 0.0
2017-Aug-17 06:29N 43°34' W 005°42'0 0.0
2017-Aug-17 04:07N 43°34' W 005°42'0 0.0
2017-Aug-17 03:31N 43°34' W 005°42'0 0.0
2017-Aug-17 03:25N 43°34' W 005°42'0 0.0
2017-Aug-17 02:55N 43°34' W 005°42'0 0.0
2017-Aug-17 02:28N 43°34' W 005°42'0 0.6
2017-Aug-17 02:00N 43°34' W 005°41'3 6.0
2017-Aug-17 01:29N 43°36' W 005°38'4 7.5
2017-Aug-17 01:00N 43°39' W 005°35'  
2017-Aug-14 20:51N 49°34' W 004°06'3 7.5
2017-Aug-14 20:24N 49°36' W 004°01'3 7.5
2017-Aug-14 19:59N 49°37' W 003°57'4 7.9
2017-Aug-14 19:31N 49°39' W 003°52'4 8.2
2017-Aug-14 19:01N 49°41' W 003°46'4 8.7
2017-Aug-14 18:31N 49°43' W 003°40'5 9.1
2017-Aug-14 18:01N 49°45' W 003°34'5 9.3
2017-Aug-14 17:31N 49°48' W 003°28'5 9.5
2017-Aug-14 17:01N 49°50' W 003°22'5 9.4
2017-Aug-14 16:31N 49°53' W 003°16'5 9.1
2017-Aug-14 16:01N 49°55' W 003°10'4 8.9
2017-Aug-14 15:31N 49°57' W 003°04'4 8.5
2017-Aug-14 15:01N 49°59' W 002°58'4 7.9
2017-Aug-14 14:31N 50°01' W 002°52'4 7.5
2017-Aug-14 14:01N 50°02' W 002°47'4 7.1
2017-Aug-14 13:31N 50°03' W 002°41'3 6.6
2017-Aug-14 13:00N 50°04' W 002°36'3 6.2
2017-Aug-14 12:30N 50°05' W 002°32'3 6.0
2017-Aug-14 12:00N 50°06' W 002°27'16 6.4
2017-Aug-14 09:33N 50°10' W 002°04'1 7.4
2017-Aug-14 09:25N 50°10' W 002°02'9 8.4
2017-Aug-14 08:22N 50°13' W 001°49'3 9.5
2017-Aug-14 08:00N 50°14' W 001°44'3910.6
2017-Aug-14 04:22N 50°23' W 000°46'3 9.0
2017-Aug-14 03:59N 50°24' W 000°41'  

Dump ship's entire track history